Clayton West, United Kingdom
Current Conditions -  °F | °C
As of 3:20 AM on Thursday 23 Oct 2014 (Local Time) from EGNM Reporting Station
Scattered Clouds Scattered Clouds  
Wind Chill: 50°   Ceiling: Unl
Heat Index: 50°   Visibility: 6mi
Dew Point: 45°   Wind: 6mph
Humidity: 82%   Direction: 240°WSW
Pressure: 30"   Gusts: NA
Location:  53.6°N, 1.61°W
Report Text: EGNM 230220Z 24005KT 180V290 9999 SCT030 10/07 Q1016
Loading
Personal Weather Stations






























Interactive Weather Map
Tropical Storm Tracking
New forecast layout! Learn more

10-Day Weather Forecast

Advertisements
Track Severe Weather on mobile